Time;durP1;ratioP1;P1;durP2;ratioP2;P2;SDS_P1;SDS_P2;PMS_P1;PMS_P2;Temp;Humidity;BMP_temperature;BMP_pressure;BME280_temperature;BME280_humidity;BME280_pressure;Samples;Min_cycle;Max_cycle;Signal;HPM_P1;HPM_P2
2023/11/21 00:01:41;;;;;;;1.77;0.83;;;;;;;10.14;100.00;95708.38;5036998;28;20228;-68
2023/11/21 00:04:09;;;;;;;4.73;1.10;;;;;;;10.26;100.00;95701.66;5038045;28;20220;-68
2023/11/21 00:06:35;;;;;;;4.77;1.03;;;;;;;10.15;100.00;95704.75;5037187;28;20965;-68
2023/11/21 00:09:02;;;;;;;1.40;0.80;;;;;;;10.04;100.00;95705.28;5037394;28;20201;-68
2023/11/21 00:11:29;;;;;;;3.20;1.20;;;;;;;10.60;100.00;95699.94;5037564;28;20295;-68
2023/11/21 00:13:55;;;;;;;6.00;1.30;;;;;;;10.68;100.00;95701.59;5037879;28;20278;-68
2023/11/21 00:16:22;;;;;;;2.30;1.07;;;;;;;10.59;100.00;95698.31;5037067;28;20236;-68
2023/11/21 00:18:48;;;;;;;1.00;0.90;;;;;;;10.47;100.00;95699.00;5037649;28;20324;-68
2023/11/21 00:21:16;;;;;;;4.30;1.00;;;;;;;10.78;100.00;95697.66;5037949;28;20208;-68
2023/11/21 00:23:43;;;;;;;4.53;0.87;;;;;;;10.69;100.00;95698.81;5036701;28;20229;-68
2023/11/21 00:26:09;;;;;;;1.43;0.87;;;;;;;10.69;100.00;95704.06;5037182;28;20217;-68
2023/11/21 00:28:36;;;;;;;3.53;0.87;;;;;;;10.67;100.00;95710.53;5037686;28;20212;-68
2023/11/21 00:31:04;;;;;;;6.90;1.00;;;;;;;10.71;100.00;95712.59;5036292;28;20209;-68
2023/11/21 00:33:30;;;;;;;4.23;1.43;;;;;;;10.62;100.00;95713.72;5036710;28;20229;-68
2023/11/21 00:35:57;;;;;;;2.70;1.17;;;;;;;10.53;100.00;95700.88;5037748;28;20213;-68
2023/11/21 00:38:24;;;;;;;2.80;1.10;;;;;;;10.64;100.00;95724.06;5037188;28;20205;-68
2023/11/21 00:40:52;;;;;;;3.10;1.40;;;;;;;10.55;100.00;95715.50;5036563;28;20208;-68
2023/11/21 00:43:19;;;;;;;3.27;1.60;;;;;;;10.34;100.00;95719.94;5036891;28;20615;-68
2023/11/21 00:45:45;;;;;;;6.23;1.63;;;;;;;10.40;100.00;95724.47;5036351;28;20225;-68
2023/11/21 00:48:13;;;;;;;4.00;1.97;;;;;;;10.50;100.00;95719.69;5036720;28;20208;-68
2023/11/21 00:50:40;;;;;;;7.03;2.67;;;;;;;10.39;100.00;95718.38;5036520;28;20263;-68
2023/11/21 00:53:07;;;;;;;6.30;2.03;;;;;;;10.41;100.00;95723.44;5037648;28;20201;-68
2023/11/21 00:55:35;;;;;;;7.13;1.83;;;;;;;10.58;100.00;95720.38;5036050;28;20217;-68
2023/11/21 00:58:03;;;;;;;5.53;2.17;;;;;;;10.45;100.00;95716.78;5036150;28;21047;-68
2023/11/21 01:00:30;;;;;;;4.97;2.10;;;;;;;10.63;100.00;95711.94;5036927;28;20241;-68
2023/11/21 01:02:56;;;;;;;8.73;2.60;;;;;;;10.53;100.00;95716.69;5036509;28;20204;-68
2023/11/21 01:05:23;;;;;;;6.23;2.20;;;;;;;10.57;100.00;95716.09;5036071;28;20228;-68
2023/11/21 01:07:50;;;;;;;5.70;1.83;;;;;;;10.65;100.00;95708.06;5036157;28;20564;-68
2023/11/21 01:10:17;;;;;;;6.67;1.90;;;;;;;10.63;100.00;95702.19;5036969;28;20205;-68
2023/11/21 01:12:45;;;;;;;4.83;2.17;;;;;;;10.84;100.00;95707.41;5035747;28;20205;-68
2023/11/21 01:15:12;;;;;;;9.17;1.80;;;;;;;10.73;100.00;95705.31;5036260;28;20213;-68
2023/11/21 01:17:39;;;;;;;6.83;2.13;;;;;;;10.79;100.00;95703.72;5036633;28;20603;-68
2023/11/21 01:20:11;;;;;;;4.27;1.80;;;;;;;10.86;100.00;95700.16;5035869;28;20201;-68
2023/11/21 01:22:38;;;;;;;4.70;1.50;;;;;;;10.45;100.00;95701.00;5036299;28;20331;-68
2023/11/21 01:25:07;;;;;;;1.73;1.13;;;;;;;10.63;100.00;95691.66;5035514;28;20224;-68
2023/11/21 01:27:33;;;;;;;1.83;1.40;;;;;;;10.52;100.00;95692.16;5035888;28;20209;-68
2023/11/21 01:30:02;;;;;;;3.17;1.50;;;;;;;10.77;100.00;95700.47;5036085;28;20224;-68
2023/11/21 01:32:29;;;;;;;5.90;1.70;;;;;;;10.71;100.00;95701.25;5036585;28;20201;-68
2023/11/21 01:34:56;;;;;;;5.67;1.83;;;;;;;10.69;100.00;95693.53;5034553;28;20244;-68
2023/11/21 01:37:22;;;;;;;5.90;1.30;;;;;;;10.69;100.00;95692.69;5036568;28;20979;-68
2023/11/21 01:39:49;;;;;;;5.17;0.90;;;;;;;10.80;100.00;95690.34;5036418;28;20216;-68
2023/11/21 01:42:15;;;;;;;1.87;1.00;;;;;;;10.70;100.00;95694.34;5035336;28;20709;-68
2023/11/21 01:44:42;;;;;;;0.80;0.70;;;;;;;10.66;100.00;95687.81;5035806;28;20347;-68
2023/11/21 01:47:10;;;;;;;3.80;1.20;;;;;;;10.87;100.00;95685.97;5036183;28;20201;-68
2023/11/21 01:49:37;;;;;;;1.73;0.87;;;;;;;10.77;100.00;95689.91;5036944;28;20209;-68
2023/11/21 01:52:05;;;;;;;2.43;1.10;;;;;;;10.84;100.00;95686.34;5035459;28;20201;-68
2023/11/21 01:54:32;;;;;;;1.70;1.10;;;;;;;10.12;100.00;95691.16;5035928;28;20225;-68
2023/11/21 01:57:02;;;;;;;1.67;1.27;;;;;;;10.10;100.00;95686.09;5035763;28;20208;-68
2023/11/21 01:59:34;;;;;;;3.63;0.83;;;;;;;10.23;100.00;95701.19;5036397;28;20213;-68
2023/11/21 02:02:01;;;;;;;0.73;0.63;;;;;;;10.05;100.00;95698.97;5035325;28;20205;-68
2023/11/21 02:04:29;;;;;;;1.73;0.67;;;;;;;10.26;100.00;95701.66;5036003;28;20236;-68
2023/11/21 02:06:56;;;;;;;2.87;0.80;;;;;;;9.73;100.00;95699.41;5034132;28;20213;-68
2023/11/21 02:09:26;;;;;;;2.90;1.03;;;;;;;10.17;100.00;95686.16;5034612;28;20300;-68
2023/11/21 02:11:53;;;;;;;2.07;0.70;;;;;;;9.89;100.00;95695.72;5038082;28;20205;-68
2023/11/21 02:14:22;;;;;;;1.27;0.80;;;;;;;9.96;100.00;95688.78;5038531;28;20580;-68
2023/11/21 02:16:49;;;;;;;3.07;1.00;;;;;;;9.94;100.00;95688.09;5037966;28;20302;-68
2023/11/21 02:19:22;;;;;;;5.77;1.20;;;;;;;10.00;100.00;95688.19;5038272;28;20211;-68
2023/11/21 02:21:51;;;;;;;2.40;0.80;;;;;;;10.14;100.00;95686.53;5038420;28;20209;-68
2023/11/21 02:24:19;;;;;;;1.17;0.80;;;;;;;9.83;100.00;95699.94;5038021;28;20229;-68
2023/11/21 02:26:46;;;;;;;2.10;0.80;;;;;;;9.59;100.00;95701.25;5037589;28;20693;-68
2023/11/21 02:29:13;;;;;;;3.20;1.00;;;;;;;9.59;100.00;95694.19;5038499;28;20247;-68
2023/11/21 02:31:47;;;;;;;2.57;1.20;;;;;;;9.63;100.00;95684.09;5038238;28;20623;-68
2023/11/21 02:34:14;;;;;;;2.10;0.90;;;;;;;9.47;100.00;95692.19;5038083;28;20220;-68
2023/11/21 02:36:42;;;;;;;1.40;1.00;;;;;;;9.58;100.00;95689.09;5038019;28;20220;-68
2023/11/21 02:39:08;;;;;;;5.87;1.33;;;;;;;9.43;100.00;95680.41;5038644;28;20211;-68
2023/11/21 02:41:37;;;;;;;1.33;0.87;;;;;;;9.63;100.00;95681.47;5037723;28;20209;-68
2023/11/21 02:44:06;;;;;;;4.73;0.93;;;;;;;9.47;100.00;95681.66;5038052;28;20212;-68
2023/11/21 02:46:33;;;;;;;2.70;0.83;;;;;;;9.59;100.00;95672.31;5037265;28;20229;-68
2023/11/21 02:49:00;;;;;;;2.40;1.00;;;;;;;9.43;100.00;95677.78;5038065;28;20204;-68
2023/11/21 02:51:26;;;;;;;2.10;0.90;;;;;;;9.48;100.00;95678.06;5037705;28;20212;-68
2023/11/21 02:53:53;;;;;;;2.10;0.93;;;;;;;9.37;100.00;95676.72;5037748;28;20220;-68
2023/11/21 02:56:19;;;;;;;8.67;1.60;;;;;;;9.52;100.00;95676.69;5037237;28;20205;-68
2023/11/21 02:58:47;;;;;;;3.77;1.50;;;;;;;9.59;100.00;95670.50;5037687;28;20201;-68
2023/11/21 03:01:13;;;;;;;1.83;1.00;;;;;;;9.45;100.00;95676.59;5038364;28;20213;-68
2023/11/21 03:03:40;;;;;;;3.27;0.80;;;;;;;9.37;100.00;95670.66;5037688;28;20216;-68
2023/11/21 03:06:07;;;;;;;4.13;0.87;;;;;;;9.41;100.00;95671.91;5000285;28;1063941;-68
2023/11/21 03:08:33;;;;;;;3.40;1.13;;;;;;;9.48;100.00;95671.00;5038487;28;20224;-68
2023/11/21 03:10:59;;;;;;;4.10;0.80;;;;;;;9.49;100.00;95663.91;5038973;28;20201;-68
2023/11/21 03:13:26;;;;;;;2.57;1.10;;;;;;;9.39;100.00;95672.06;5036248;28;20209;-68
2023/11/21 03:15:54;;;;;;;2.40;1.10;;;;;;;9.62;100.00;95664.88;5038608;28;20723;-68
2023/11/21 03:18:21;;;;;;;1.17;0.80;;;;;;;9.43;100.00;95670.72;5038740;28;20789;-68
2023/11/21 03:20:48;;;;;;;2.67;1.30;;;;;;;9.43;100.00;95673.34;5037816;28;20205;-68
2023/11/21 03:23:15;;;;;;;5.03;1.07;;;;;;;9.41;100.00;95674.53;5038431;28;20205;-68
2023/11/21 03:25:42;;;;;;;2.37;0.97;;;;;;;9.33;100.00;95670.19;5038163;28;20229;-68
2023/11/21 03:28:08;;;;;;;4.40;1.33;;;;;;;9.23;100.00;95669.66;5038698;28;20201;-69
2023/11/21 03:30:35;;;;;;;3.27;0.80;;;;;;;9.31;100.00;95681.88;5038748;28;20205;-68
2023/11/21 03:33:03;;;;;;;0.80;0.73;;;;;;;9.28;100.00;95669.13;5038208;28;20205;-68
2023/11/21 03:35:29;;;;;;;2.30;1.00;;;;;;;9.27;100.00;95672.72;5036842;28;20217;-68
2023/11/21 03:37:56;;;;;;;3.07;0.87;;;;;;;9.17;100.00;95675.63;5038192;28;20589;-68
2023/11/21 03:40:22;;;;;;;3.07;1.10;;;;;;;9.34;100.00;95682.34;5038372;28;20209;-68
2023/11/21 03:42:49;;;;;;;0.60;0.60;;;;;;;9.37;100.00;95678.53;5037895;28;20228;-68
2023/11/21 03:45:15;;;;;;;2.23;0.77;;;;;;;9.25;100.00;95675.56;5037503;28;20229;-68
2023/11/21 03:47:42;;;;;;;0.73;0.60;;;;;;;9.39;100.00;95679.94;5038123;28;20201;-68
2023/11/21 03:50:10;;;;;;;4.83;0.70;;;;;;;9.38;100.00;95667.00;5038060;28;20201;-68
2023/11/21 03:52:38;;;;;;;3.70;1.00;;;;;;;9.41;100.00;95679.78;5035628;28;20197;-68
2023/11/21 03:55:05;;;;;;;1.47;0.70;;;;;;;9.51;100.00;95682.94;5035173;28;20228;-68
2023/11/21 03:57:31;;;;;;;0.97;0.90;;;;;;;9.46;100.00;95680.06;5036477;28;20212;-68
2023/11/21 03:59:58;;;;;;;0.60;0.60;;;;;;;9.42;100.00;95681.41;5037022;28;20900;-68
2023/11/21 04:02:25;;;;;;;1.30;0.50;;;;;;;9.37;100.00;95687.22;5037278;28;20213;-68
2023/11/21 04:04:52;;;;;;;2.27;0.70;;;;;;;9.57;100.00;95676.94;5035956;28;20299;-68
2023/11/21 04:07:21;;;;;;;0.70;0.63;;;;;;;9.76;100.00;95678.00;5037178;28;20667;-68
2023/11/21 04:09:48;;;;;;;1.77;0.83;;;;;;;9.31;100.00;95681.88;5037791;28;20205;-68
2023/11/21 04:12:14;;;;;;;5.83;0.80;;;;;;;9.23;100.00;95684.63;5036996;28;20201;-68
2023/11/21 04:14:41;;;;;;;3.17;0.80;;;;;;;9.41;100.00;95683.22;5037147;28;20595;-68
2023/11/21 04:17:08;;;;;;;4.77;1.37;;;;;;;9.38;100.00;95682.78;5037730;28;20205;-68
2023/11/21 04:19:34;;;;;;;1.17;0.73;;;;;;;9.48;100.00;95683.31;5038076;28;20938;-68
2023/11/21 04:22:01;;;;;;;1.57;1.00;;;;;;;9.38;100.00;95680.13;5038075;28;20205;-68
2023/11/21 04:24:29;;;;;;;5.30;0.73;;;;;;;9.73;100.00;95673.09;5037011;28;20591;-68
2023/11/21 04:26:55;;;;;;;3.93;0.63;;;;;;;9.44;100.00;95671.53;5036968;28;20212;-68
2023/11/21 04:29:22;;;;;;;1.53;0.70;;;;;;;9.34;100.00;95673.63;5036938;28;20644;-68
2023/11/21 04:31:49;;;;;;;5.50;0.93;;;;;;;9.49;100.00;95682.31;5036889;28;20259;-68
2023/11/21 04:34:16;;;;;;;1.37;0.80;;;;;;;9.46;100.00;95685.31;5036070;28;20272;-68
2023/11/21 04:36:42;;;;;;;0.83;0.67;;;;;;;9.58;100.00;95689.91;5036579;28;20204;-67
2023/11/21 04:39:09;;;;;;;2.00;0.93;;;;;;;9.58;100.00;95695.16;5036889;28;20208;-68
2023/11/21 04:41:39;;;;;;;1.17;0.80;;;;;;;9.64;100.00;95694.44;5037308;28;20205;-67
2023/11/21 04:44:06;;;;;;;4.47;0.73;;;;;;;9.53;100.00;95707.25;5037519;28;20201;-69
2023/11/21 04:46:32;;;;;;;7.50;0.87;;;;;;;9.51;100.00;95706.59;5035569;28;20236;-68
2023/11/21 04:48:59;;;;;;;1.80;0.70;;;;;;;9.58;100.00;95710.16;5036594;28;20201;-67
2023/11/21 04:51:25;;;;;;;0.80;0.80;;;;;;;9.43;100.00;95706.72;5036904;28;20683;-68
2023/11/21 04:53:52;;;;;;;2.57;0.60;;;;;;;9.60;100.00;95708.13;5035916;28;20209;-68
2023/11/21 04:56:18;;;;;;;4.90;0.90;;;;;;;9.51;100.00;95703.97;5034922;28;20663;-68
2023/11/21 04:58:46;;;;;;;0.87;0.50;;;;;;;9.65;100.00;95703.97;5035432;28;20205;-68
2023/11/21 05:01:13;;;;;;;4.13;1.10;;;;;;;9.54;100.00;95708.88;5035562;28;20672;-68
2023/11/21 05:03:40;;;;;;;2.97;0.70;;;;;;;9.68;100.00;95712.28;5035664;28;20216;-68
2023/11/21 05:06:07;;;;;;;1.50;0.70;;;;;;;9.61;100.00;95709.75;5035577;28;20225;-67
2023/11/21 05:08:33;;;;;;;0.97;0.70;;;;;;;9.56;100.00;95712.13;5036020;28;20215;-67
2023/11/21 05:11:00;;;;;;;1.17;0.70;;;;;;;9.54;100.00;95714.16;5035459;28;20581;-67
2023/11/21 05:13:27;;;;;;;1.63;0.87;;;;;;;9.55;100.00;95713.94;5035834;28;20322;-67
2023/11/21 05:15:55;;;;;;;1.40;0.80;;;;;;;9.55;100.00;95705.25;5035154;28;20359;-68
2023/11/21 05:18:22;;;;;;;1.53;0.63;;;;;;;9.47;100.00;95700.91;5035294;28;20212;-68
2023/11/21 05:20:48;;;;;;;0.97;0.73;;;;;;;9.45;100.00;95713.41;5035942;28;20209;-67
2023/11/21 05:23:15;;;;;;;6.13;1.07;;;;;;;9.56;100.00;95704.25;5036096;28;20205;-68
2023/11/21 05:25:42;;;;;;;1.20;0.63;;;;;;;9.47;100.00;95702.72;5035046;28;20255;-67
2023/11/21 05:28:08;;;;;;;0.90;0.50;;;;;;;9.34;100.00;95708.63;5035453;28;20588;-67
2023/11/21 05:30:35;;;;;;;1.57;1.10;;;;;;;9.33;100.00;95706.16;5035689;28;20208;-67
2023/11/21 05:33:03;;;;;;;2.47;0.80;;;;;;;9.53;100.00;95701.97;5035493;28;20300;-68
2023/11/21 05:35:29;;;;;;;2.87;0.70;;;;;;;9.38;100.00;95709.06;5034660;28;20228;-68
2023/11/21 05:37:56;;;;;;;2.20;1.20;;;;;;;9.40;100.00;95704.44;5035539;28;20201;-67
2023/11/21 05:40:23;;;;;;;4.07;1.40;;;;;;;9.42;100.00;95710.31;5035380;28;20205;-68
2023/11/21 05:42:51;;;;;;;8.00;2.57;;;;;;;9.41;100.00;95704.25;5035131;28;20209;-67
2023/11/21 05:45:18;;;;;;;12.13;3.50;;;;;;;9.42;100.00;95707.69;5035047;28;20324;-67
2023/11/21 05:47:46;;;;;;;12.60;4.40;;;;;;;9.55;100.00;95711.31;5035135;28;20212;-67
2023/11/21 05:50:16;;;;;;;13.07;4.37;;;;;;;9.64;100.00;95709.41;5034896;28;20687;-67
2023/11/21 05:52:43;;;;;;;10.23;3.23;;;;;;;9.42;100.00;95708.53;5035659;28;20235;-67
2023/11/21 05:55:10;;;;;;;29.80;10.33;;;;;;;9.59;100.00;95709.16;5035375;28;20229;-67
2023/11/21 05:57:37;;;;;;;18.87;5.73;;;;;;;9.34;100.00;95718.31;5034458;28;20202;-68
2023/11/21 06:00:10;;;;;;;12.53;5.27;;;;;;;9.39;100.00;95721.22;5035241;28;20205;-67
2023/11/21 06:02:38;;;;;;;6.27;3.83;;;;;;;9.14;100.00;95722.50;5035419;28;20211;-67
2023/11/21 06:05:05;;;;;;;5.77;3.03;;;;;;;9.14;100.00;95725.13;5034479;28;20567;-68
2023/11/21 06:07:33;;;;;;;2.43;1.67;;;;;;;9.25;100.00;95724.66;5035484;28;20224;-67
2023/11/21 06:10:01;;;;;;;4.80;2.10;;;;;;;9.24;100.00;95729.13;5035155;28;20694;-67
2023/11/21 06:12:28;;;;;;;6.00;1.93;;;;;;;9.07;100.00;95726.03;5035359;28;20209;-67
2023/11/21 06:14:55;;;;;;;4.33;2.60;;;;;;;9.02;100.00;95726.56;5034325;28;20229;-67
2023/11/21 06:17:21;;;;;;;4.23;2.47;;;;;;;9.22;100.00;95731.09;5035450;28;20197;-68
2023/11/21 06:19:48;;;;;;;8.67;3.20;;;;;;;9.31;100.00;95729.22;5035090;28;20212;-67
2023/11/21 06:22:15;;;;;;;19.50;4.87;;;;;;;9.30;100.00;95728.38;5035051;28;20676;-68
2023/11/21 06:24:43;;;;;;;15.73;4.40;;;;;;;9.45;100.00;95738.91;5034714;28;20239;-68
2023/11/21 06:27:09;;;;;;;12.40;4.67;;;;;;;9.22;100.00;95733.72;5034584;28;20224;-67
2023/11/21 06:29:36;;;;;;;9.77;4.20;;;;;;;9.05;100.00;95733.25;5034632;28;20638;-68
2023/11/21 06:32:05;;;;;;;6.83;2.90;;;;;;;8.85;100.00;95737.41;5034719;28;20483;-67
2023/11/21 06:34:31;;;;;;;5.13;3.00;;;;;;;8.63;100.00;95741.69;5035138;28;20322;-67
2023/11/21 06:36:58;;;;;;;6.53;2.27;;;;;;;8.60;100.00;95738.59;5034220;28;20205;-68
2023/11/21 06:39:24;;;;;;;4.03;1.70;;;;;;;8.84;100.00;95744.47;5035055;28;20212;-68
2023/11/21 06:41:52;;;;;;;4.27;1.50;;;;;;;8.76;100.00;95747.16;5034943;28;20232;-68
2023/11/21 06:44:19;;;;;;;1.83;1.57;;;;;;;8.73;100.00;95751.94;5035021;28;20236;-67
2023/11/21 06:46:46;;;;;;;2.87;1.43;;;;;;;8.90;100.00;95753.47;5034554;28;20709;-67
2023/11/21 06:49:12;;;;;;;2.47;1.37;;;;;;;8.88;100.00;95747.56;5035578;28;20201;-67
2023/11/21 06:51:39;;;;;;;2.60;1.00;;;;;;;8.88;100.00;95750.19;5034016;28;20205;-67
2023/11/21 06:54:07;;;;;;;3.00;1.30;;;;;;;9.15;100.00;95755.66;5035223;28;20201;-68
2023/11/21 06:56:33;;;;;;;4.80;1.30;;;;;;;9.01;100.00;95756.44;5036406;28;20198;-68
2023/11/21 06:59:01;;;;;;;3.43;1.30;;;;;;;9.15;100.00;95766.16;5037771;28;20687;-67
2023/11/21 07:01:27;;;;;;;5.80;1.70;;;;;;;8.96;100.00;95771.97;5038166;28;20209;-68
2023/11/21 07:03:54;;;;;;;3.70;1.50;;;;;;;9.01;100.00;95771.41;5039019;28;20197;-68
2023/11/21 07:06:21;;;;;;;3.30;1.47;;;;;;;9.06;100.00;95772.50;5037473;28;20229;-67
2023/11/21 07:08:48;;;;;;;2.00;1.23;;;;;;;9.00;100.00;95775.84;5037770;28;20319;-67
2023/11/21 07:11:14;;;;;;;3.37;1.50;;;;;;;9.09;100.00;95783.47;5038317;28;20271;-67
2023/11/21 07:13:41;;;;;;;3.67;1.10;;;;;;;9.17;100.00;95790.47;5038233;28;20209;-67
2023/11/21 07:16:10;;;;;;;4.43;1.00;;;;;;;9.37;100.00;95789.78;5037550;28;21075;-68
2023/11/21 07:18:36;;;;;;;3.53;1.40;;;;;;;9.24;100.00;95791.38;5038339;28;20236;-68
2023/11/21 07:21:03;;;;;;;3.73;1.60;;;;;;;9.27;100.00;95798.91;5037878;28;20205;-68
2023/11/21 07:23:30;;;;;;;2.30;1.30;;;;;;;9.14;100.00;95793.47;5037728;28;20701;-67
2023/11/21 07:25:57;;;;;;;1.53;1.30;;;;;;;9.35;100.00;95809.34;5037280;28;20897;-68
2023/11/21 07:28:25;;;;;;;4.40;1.50;;;;;;;9.53;100.00;95804.56;5038369;28;20219;-67
2023/11/21 07:30:52;;;;;;;1.70;1.10;;;;;;;9.51;100.00;95812.63;5037559;28;20229;-67
2023/11/21 07:33:21;;;;;;;2.33;1.37;;;;;;;9.65;100.00;95800.47;5037258;28;20471;-67
2023/11/21 07:35:48;;;;;;;2.03;1.27;;;;;;;9.57;100.00;95808.44;5037531;28;20605;-67
2023/11/21 07:38:14;;;;;;;3.27;1.50;;;;;;;9.74;100.00;95814.16;5037726;28;20635;-68
2023/11/21 07:40:41;;;;;;;7.40;1.90;;;;;;;9.64;100.00;95814.63;5037661;28;20201;-67
2023/11/21 07:43:07;;;;;;;8.30;2.83;;;;;;;9.87;100.00;95813.53;5037453;28;20209;-67
2023/11/21 07:45:34;;;;;;;11.53;3.33;;;;;;;9.91;100.00;95818.22;5036823;28;20228;-67
2023/11/21 07:48:00;;;;;;;12.93;3.47;;;;;;;9.82;100.00;95818.53;5037100;28;20212;-67
2023/11/21 07:50:28;;;;;;;9.67;2.57;;;;;;;10.11;100.00;95821.97;5037419;28;20217;-67
2023/11/21 07:52:55;;;;;;;4.53;1.93;;;;;;;10.23;100.00;95815.22;5037483;28;20213;-68
2023/11/21 07:55:22;;;;;;;3.17;1.80;;;;;;;10.19;100.00;95827.13;5036616;28;20232;-67
2023/11/21 07:57:48;;;;;;;1.43;0.80;;;;;;;10.19;100.00;95828.97;5037671;28;20193;-67
2023/11/21 08:00:15;;;;;;;1.13;1.03;;;;;;;10.22;100.00;95829.41;5037648;28;20879;-68
2023/11/21 08:02:45;;;;;;;1.67;1.30;;;;;;;10.38;100.00;95829.19;5036995;28;20383;-67
2023/11/21 08:05:12;;;;;;;2.20;1.30;;;;;;;10.19;100.00;95832.41;5036076;28;20688;-67
2023/11/21 08:07:40;;;;;;;1.20;0.93;;;;;;;10.16;100.00;95831.97;5036971;28;20718;-67
2023/11/21 08:10:10;;;;;;;1.47;0.80;;;;;;;10.02;100.00;95836.25;5036939;28;20204;-68
2023/11/21 08:12:36;;;;;;;2.90;1.10;;;;;;;10.03;100.00;95832.63;5037195;28;20359;-68
2023/11/21 08:15:03;;;;;;;1.90;1.20;;;;;;;9.86;100.00;95831.16;5036833;28;20729;-68
2023/11/21 08:17:32;;;;;;;1.40;1.20;;;;;;;10.11;100.00;95829.06;5037028;28;20204;-67
2023/11/21 08:19:59;;;;;;;3.57;1.80;;;;;;;10.01;100.00;95829.34;5036488;28;20204;-68
2023/11/21 08:22:25;;;;;;;3.30;1.53;;;;;;;9.97;100.00;95835.97;5037065;28;20224;-67
2023/11/21 08:24:55;;;;;;;5.43;2.20;;;;;;;10.37;100.00;95832.81;5035943;28;20741;-67
2023/11/21 08:27:22;;;;;;;3.17;1.90;;;;;;;10.35;100.00;95833.00;5036150;28;20226;-68
2023/11/21 08:29:48;;;;;;;3.33;1.30;;;;;;;9.98;100.00;95842.03;5036888;28;20197;-67
2023/11/21 08:32:15;;;;;;;2.00;1.20;;;;;;;10.07;100.00;95840.94;5036549;28;20208;-67
2023/11/21 08:34:43;;;;;;;3.97;1.50;;;;;;;10.12;100.00;95835.94;5036123;28;20221;-67
2023/11/21 08:37:10;;;;;;;5.73;1.73;;;;;;;10.31;100.00;95846.75;5036178;28;20200;-68
2023/11/21 08:39:37;;;;;;;6.13;2.33;;;;;;;10.44;100.00;95850.31;5036853;28;20209;-68
2023/11/21 08:42:06;;;;;;;2.17;1.30;;;;;;;10.30;100.00;95850.38;5036039;28;20201;-67
2023/11/21 08:44:32;;;;;;;7.50;1.77;;;;;;;10.40;100.00;95850.91;5036317;28;20733;-67
2023/11/21 08:46:59;;;;;;;4.53;1.37;;;;;;;10.55;100.00;95849.84;5035653;28;20225;-67
2023/11/21 08:49:27;;;;;;;2.03;1.10;;;;;;;10.58;100.00;95848.66;5036363;28;20201;-67
2023/11/21 08:51:55;;;;;;;2.90;1.47;;;;;;;10.60;100.00;95857.19;5035851;28;20236;-67
2023/11/21 08:54:21;;;;;;;3.87;1.90;;;;;;;10.81;100.00;95850.13;5035716;28;20217;-67
2023/11/21 08:56:48;;;;;;;2.80;1.20;;;;;;;10.80;100.00;95858.22;5034802;28;20386;-67
2023/11/21 08:59:16;;;;;;;3.33;1.07;;;;;;;10.95;100.00;95847.41;5036271;28;20219;-67
2023/11/21 09:01:42;;;;;;;1.43;0.97;;;;;;;10.88;100.00;95851.00;5036476;28;20211;-68
2023/11/21 09:04:09;;;;;;;1.80;1.10;;;;;;;10.75;100.00;95855.34;5035893;28;20202;-67
2023/11/21 09:06:35;;;;;;;2.20;1.00;;;;;;;10.51;100.00;95860.94;5035044;28;20477;-67
2023/11/21 09:09:04;;;;;;;1.40;1.13;;;;;;;10.65;100.00;95865.34;5036208;28;20205;-67
2023/11/21 09:11:33;;;;;;;3.27;1.30;;;;;;;10.70;100.00;95861.16;5035842;28;20202;-67
2023/11/21 09:14:00;;;;;;;1.60;0.97;;;;;;;10.44;100.00;95870.59;5035218;28;20255;-67
2023/11/21 09:16:28;;;;;;;2.63;1.20;;;;;;;10.50;100.00;95873.31;5036054;28;20431;-68
2023/11/21 09:18:54;;;;;;;1.40;1.10;;;;;;;10.37;100.00;95867.03;5035158;28;20882;-67
2023/11/21 09:21:21;;;;;;;3.00;1.40;;;;;;;10.55;100.00;95868.28;5035365;28;20205;-68
2023/11/21 09:23:48;;;;;;;2.40;1.33;;;;;;;10.81;100.00;95873.03;5035556;28;20201;-67
2023/11/21 09:26:16;;;;;;;2.73;1.70;;;;;;;10.57;100.00;95876.00;5035405;28;20710;-67
2023/11/21 09:28:46;;;;;;;2.27;1.43;;;;;;;10.74;100.00;95877.41;5035761;28;20213;-67
2023/11/21 09:31:12;;;;;;;4.53;1.50;;;;;;;10.86;100.00;95873.28;5035127;28;20659;-68
2023/11/21 09:33:40;;;;;;;2.93;1.53;;;;;;;10.58;100.00;95872.38;5036616;28;20197;-67
2023/11/21 09:36:13;;;;;;;3.53;1.60;;;;;;;10.52;100.00;95873.91;5034701;28;20248;-67
2023/11/21 09:38:41;;;;;;;5.87;1.53;;;;;;;10.73;100.00;95873.13;5035892;28;20212;-67
2023/11/21 09:41:17;;;;;;;3.60;1.83;;;;;;;10.91;100.00;95871.72;5035109;28;20201;-67
2023/11/21 09:43:45;;;;;;;2.40;1.33;;;;;;;10.78;100.00;95876.03;5035700;28;20785;-67
2023/11/21 09:46:19;;;;;;;1.63;1.30;;;;;;;10.93;100.00;95878.44;5034464;28;20221;-68
2023/11/21 09:48:51;;;;;;;2.47;1.70;;;;;;;10.86;100.00;95883.81;5035625;28;20209;-67
2023/11/21 09:51:20;;;;;;;2.90;1.20;;;;;;;10.73;100.00;95873.13;5035134;28;20229;-67
2023/11/21 09:53:52;;;;;;;3.70;1.10;;;;;;;10.94;100.00;95866.06;5035595;28;20228;-67
2023/11/21 09:56:23;;;;;;;2.03;1.30;;;;;;;10.88;100.00;95872.06;5035027;28;21011;-67
2023/11/21 09:58:52;;;;;;;2.50;1.70;;;;;;;10.95;100.00;95863.25;5035169;28;20306;-68
2023/11/21 10:01:20;;;;;;;2.00;1.57;;;;;;;10.80;100.00;95869.56;5034722;28;20692;-67
2023/11/21 10:03:48;;;;;;;4.00;2.30;;;;;;;10.79;100.00;95869.75;5034952;28;20205;-67
2023/11/21 10:06:15;;;;;;;1.83;1.50;;;;;;;10.39;100.00;95870.31;5035035;28;20229;-67
2023/11/21 10:08:42;;;;;;;3.13;2.00;;;;;;;10.63;100.00;95865.53;5034821;28;20203;-68
2023/11/21 10:11:11;;;;;;;2.17;1.53;;;;;;;10.54;100.00;95873.75;5035398;28;20248;-67
2023/11/21 10:13:41;;;;;;;2.97;1.70;;;;;;;10.72;100.00;95867.06;5034621;28;20208;-67
2023/11/21 10:16:11;;;;;;;8.73;3.07;;;;;;;10.94;100.00;95868.69;5034460;28;20268;-67
2023/11/21 10:18:40;;;;;;;6.03;2.93;;;;;;;10.95;100.00;95868.50;5035014;28;20201;-68
2023/11/21 10:21:09;;;;;;;4.93;1.53;;;;;;;11.25;100.00;95867.38;5034684;28;20209;-68
2023/11/21 10:23:35;;;;;;;2.57;1.67;;;;;;;11.27;100.00;95852.16;5034511;28;20292;-67
2023/11/21 10:26:02;;;;;;;3.13;1.60;;;;;;;11.54;100.00;95856.69;5034577;28;20707;-67
2023/11/21 10:28:28;;;;;;;3.40;1.53;;;;;;;11.78;100.00;95856.25;5035307;28;20228;-67
2023/11/21 10:30:55;;;;;;;2.37;1.20;;;;;;;11.63;100.00;95859.00;5034722;28;20216;-67
2023/11/21 10:33:28;;;;;;;1.90;1.40;;;;;;;11.95;100.00;95862.84;5039015;28;20217;-67
2023/11/21 10:35:54;;;;;;;3.30;1.60;;;;;;;11.88;100.00;95864.66;5039223;28;20651;-67
2023/11/21 10:38:24;;;;;;;2.40;1.47;;;;;;;11.63;100.00;95864.28;5039234;28;20208;-67
2023/11/21 10:40:51;;;;;;;1.93;1.53;;;;;;;11.72;100.00;95857.84;5039128;28;20672;-67
2023/11/21 10:43:18;;;;;;;2.80;1.40;;;;;;;11.62;100.00;95865.28;5038975;28;20209;-68
2023/11/21 10:45:45;;;;;;;2.50;1.20;;;;;;;11.83;100.00;95859.94;5038611;28;20225;-67
2023/11/21 10:48:15;;;;;;;2.20;1.60;;;;;;;12.06;100.00;95859.66;5038472;28;20248;-67
2023/11/21 10:50:41;;;;;;;3.20;1.93;;;;;;;12.14;100.00;95857.66;5038796;28;20278;-68
2023/11/21 10:53:08;;;;;;;3.07;1.73;;;;;;;11.91;100.00;95857.13;5038160;28;20570;-67
2023/11/21 10:55:36;;;;;;;2.30;1.30;;;;;;;12.50;100.00;95856.44;5037922;28;20247;-67
2023/11/21 10:58:04;;;;;;;3.07;1.17;;;;;;;12.40;100.00;95857.81;5038457;28;20201;-68
2023/11/21 11:00:32;;;;;;;1.70;1.00;;;;;;;12.39;100.00;95851.69;5038728;28;20212;-67
2023/11/21 11:02:59;;;;;;;1.70;1.20;;;;;;;12.63;100.00;95859.13;5038498;28;20205;-67
2023/11/21 11:05:26;;;;;;;4.00;1.50;;;;;;;12.76;100.00;95859.16;5037583;28;20251;-68
2023/11/21 11:08:01;;;;;;;2.50;1.37;;;;;;;12.17;100.00;95860.75;5038220;28;20231;-67
2023/11/21 11:10:29;;;;;;;2.13;1.50;;;;;;;11.96;100.00;95864.47;5038048;28;20246;-67
2023/11/21 11:12:58;;;;;;;2.33;1.60;;;;;;;12.18;100.00;95854.47;5038120;28;20253;-67
2023/11/21 11:15:25;;;;;;;3.30;1.60;;;;;;;12.15;100.00;95861.94;5037422;28;20761;-67
2023/11/21 11:17:51;;;;;;;2.67;1.40;;;;;;;12.19;100.00;95850.81;5038309;28;20209;-67
2023/11/21 11:20:20;;;;;;;2.67;1.57;;;;;;;12.20;100.00;95851.63;5037557;28;20890;-67
2023/11/21 11:22:57;;;;;;;4.83;2.60;;;;;;;12.67;100.00;95849.78;5037874;28;20266;-67
2023/11/21 11:25:39;;;;;;;3.23;1.80;;;;;;;12.93;100.00;95847.22;5036731;28;20934;-68
2023/11/21 11:28:11;;;;;;;2.60;1.47;;;;;;;13.06;100.00;95844.59;5037837;28;20221;-68
2023/11/21 11:30:48;;;;;;;4.43;1.50;;;;;;;13.26;100.00;95846.25;5037659;28;20204;-67